createdAt,value
2022-09-22T12:00:39.532Z,33.80
2022-09-22T12:03:28.693Z,33.70
2022-09-22T12:06:09.265Z,34.20
2022-09-22T12:09:04.334Z,35.60
2022-09-22T12:11:41.831Z,37.00
2022-09-22T12:14:15.392Z,37.70
2022-09-22T12:17:41.004Z,37.80
2022-09-22T12:20:57.242Z,37.30
2022-09-22T12:23:37.626Z,36.80
2022-09-22T12:26:09.305Z,36.10
2022-09-22T12:28:45.946Z,35.70
2022-09-22T12:31:19.808Z,35.80
2022-09-22T12:33:57.870Z,36.30
2022-09-22T12:36:40.221Z,36.70
2022-09-22T12:39:25.218Z,36.60
2022-09-22T12:42:00.336Z,36.30
2022-09-22T12:44:43.373Z,36.10
2022-09-22T12:47:41.778Z,36.30
2022-09-22T12:50:24.792Z,36.90
2022-09-22T12:52:52.038Z,37.30
2022-09-22T12:55:28.878Z,37.60
2022-09-22T12:58:04.117Z,37.30
2022-09-22T13:00:41.387Z,36.50
2022-09-22T13:03:26.909Z,35.80
2022-09-22T13:06:04.994Z,35.50
2022-09-22T13:08:35.906Z,34.90
2022-09-22T13:11:10.387Z,34.70
2022-09-22T13:13:41.823Z,35.00
2022-09-22T13:16:15.379Z,35.10
2022-09-22T13:19:03.570Z,34.80
2022-09-22T13:21:33.741Z,35.10
2022-09-22T13:24:05.242Z,35.80
2022-09-22T13:26:39.203Z,36.60
2022-09-22T13:29:12.332Z,37.00
2022-09-22T13:31:51.202Z,36.30
2022-09-22T13:34:31.738Z,34.40
2022-09-22T13:37:20.491Z,32.30
2022-09-22T13:39:54.001Z,30.20
2022-09-22T13:42:33.492Z,28.40
2022-09-22T13:45:24.375Z,26.90
2022-09-22T13:48:08.293Z,26.00
2022-09-22T13:50:55.411Z,25.60
2022-09-22T13:53:23.439Z,25.10
2022-09-22T13:58:39.237Z,23.90
2022-09-22T14:01:20.157Z,23.80
2022-09-22T14:03:50.764Z,23.40
2022-09-22T14:06:29.061Z,22.90
2022-09-22T14:08:56.952Z,22.40
2022-09-22T14:11:29.675Z,21.90
2022-09-22T14:14:08.944Z,21.50
2022-09-22T14:16:48.927Z,21.20
2022-09-22T14:19:34.216Z,21.10
2022-09-22T14:22:20.931Z,20.80
2022-09-22T14:24:54.288Z,20.70
2022-09-22T14:27:45.354Z,20.70
2022-09-22T14:30:31.494Z,20.70
2022-09-22T14:33:03.195Z,20.60
2022-09-22T14:35:33.111Z,20.60
2022-09-22T14:38:16.508Z,20.60
2022-09-22T14:40:58.886Z,20.40
2022-09-22T14:43:42.467Z,20.30
2022-09-22T14:46:34.922Z,20.20
2022-09-22T14:49:32.888Z,20.10
2022-09-22T14:52:07.509Z,20.00
2022-09-22T14:54:35.657Z,19.90
2022-09-22T14:57:07.832Z,19.80
2022-09-22T14:59:57.117Z,19.70
2022-09-22T15:02:35.873Z,19.60
2022-09-22T15:05:05.448Z,19.40
2022-09-22T15:07:46.593Z,19.20
2022-09-22T15:10:32.355Z,19.10
2022-09-22T15:13:31.783Z,19.10
2022-09-22T15:15:59.226Z,19.00
2022-09-22T15:18:30.552Z,19.00
2022-09-22T15:21:06.739Z,18.90
2022-09-22T15:23:47.690Z,18.90
2022-09-22T15:26:25.126Z,18.80
2022-09-22T15:28:55.548Z,18.80
2022-09-22T15:31:32.995Z,18.80
2022-09-22T15:34:03.946Z,18.80
2022-09-22T15:36:36.834Z,18.80
2022-09-22T15:39:21.729Z,18.80
2022-09-22T15:41:50.103Z,18.70
2022-09-22T15:44:17.729Z,18.60
2022-09-22T15:46:51.426Z,18.50
2022-09-22T15:49:26.648Z,18.50
2022-09-22T15:51:58.525Z,18.30
2022-09-22T15:54:27.445Z,18.20
2022-09-22T15:56:57.434Z,18.20
2022-09-22T15:59:28.552Z,18.10
2022-09-22T16:01:57.360Z,18.10
2022-09-22T16:07:05.611Z,17.90
2022-09-22T16:09:33.316Z,17.80
2022-09-22T16:12:01.010Z,17.80
2022-09-22T16:14:28.575Z,17.80
2022-09-22T16:16:55.943Z,17.80
2022-09-22T16:19:23.368Z,17.90
2022-09-22T16:21:54.621Z,18.00
2022-09-22T16:24:22.962Z,18.00
2022-09-22T16:26:51.995Z,18.00
2022-09-22T16:29:20.573Z,18.10
2022-09-22T16:31:49.170Z,18.00
2022-09-22T16:34:16.744Z,17.90
2022-09-22T16:36:45.318Z,17.90
2022-09-22T16:39:12.743Z,17.90
2022-09-22T16:41:45.494Z,17.80
2022-09-22T16:44:13.813Z,17.70
2022-09-22T16:46:41.324Z,17.60
2022-09-22T16:49:10.916Z,17.40
2022-09-22T16:51:44.801Z,17.20
2022-09-22T16:54:14.637Z,17.10
2022-09-22T16:56:48.136Z,16.90
2022-09-22T16:59:21.343Z,16.70
2022-09-22T17:01:50.248Z,16.60
2022-09-22T17:04:19.797Z,16.40
2022-09-22T17:06:47.772Z,16.20
2022-09-22T17:09:15.735Z,16.10
2022-09-22T17:11:45.856Z,15.90
2022-09-22T17:14:17.553Z,15.70
2022-09-22T17:16:50.001Z,15.60
2022-09-22T17:19:23.553Z,15.40
2022-09-22T17:21:53.362Z,15.30
2022-09-22T17:24:21.135Z,15.10
2022-09-22T17:26:55.866Z,15.00
2022-09-22T17:29:31.527Z,14.90
2022-09-22T17:32:03.347Z,14.70
2022-09-22T17:34:33.350Z,14.60
2022-09-22T17:37:03.226Z,14.50
2022-09-22T17:39:32.107Z,14.40
2022-09-22T17:41:59.978Z,14.20
2022-09-22T17:44:31.059Z,14.10
2022-09-22T17:47:17.293Z,14.00
2022-09-22T17:50:03.441Z,14.00
2022-09-22T17:52:35.280Z,13.90
2022-09-22T17:55:14.467Z,13.80
2022-09-22T17:57:45.291Z,13.70
2022-09-22T18:00:21.396Z,13.60
2022-09-22T18:02:54.549Z,13.50
2022-09-22T18:05:27.896Z,13.30
2022-09-22T18:07:58.726Z,13.20
2022-09-22T18:10:31.130Z,13.10
2022-09-22T18:13:00.400Z,13.00
2022-09-22T18:15:28.267Z,12.90
2022-09-22T18:17:58.336Z,12.70
2022-09-22T18:20:27.801Z,12.70
2022-09-22T18:22:56.212Z,12.70
2022-09-22T18:25:25.859Z,12.60
2022-09-22T18:27:53.854Z,12.50
2022-09-22T18:30:21.249Z,12.40
2022-09-22T18:32:49.588Z,12.30
2022-09-22T18:35:17.716Z,12.20
2022-09-22T18:37:45.088Z,12.10
2022-09-22T18:40:12.889Z,12.00
2022-09-22T18:42:43.441Z,11.90
2022-09-22T18:45:14.409Z,11.80
2022-09-22T18:47:43.958Z,11.70
2022-09-22T18:50:12.466Z,11.70
2022-09-22T18:52:43.388Z,11.60
2022-09-22T18:55:11.944Z,11.50
2022-09-22T18:57:39.531Z,11.40
2022-09-22T19:00:07.917Z,11.40
2022-09-22T19:02:35.412Z,11.30
2022-09-22T19:05:02.875Z,11.20
2022-09-22T19:07:42.476Z,11.20
2022-09-22T19:10:14.931Z,11.10
2022-09-22T19:12:43.001Z,11.10
2022-09-22T19:15:14.051Z,11.10
2022-09-22T19:17:47.186Z,11.00
2022-09-22T19:20:24.220Z,11.00
2022-09-22T19:22:52.742Z,11.00
2022-09-22T19:25:21.956Z,11.00
2022-09-22T19:27:52.603Z,10.90
2022-09-22T19:30:24.123Z,10.80
2022-09-22T19:32:54.618Z,10.60
